Airfield :
LOGIN :

Register | Disclaimer

   EN    FR    IT 

 










Legend :    VFR   Marginal VFR   IFR   Intensive IFR   Very Intensive IFR
Visi :
Ceiling :
>= 8 km
>= 3000ft
5 to 8 km
1000 to 3000 ft
1500m to 5 km
500 to 1000 ft
800 to 1500m
200 to 500 ft
< 800m
< 200 ft
Symbols :   Thunderstorms  Fog  Heavy snow  Heavy precipitations  Wind > 20 kt
SIGMETs :     Misc.  Thunderstorms  Icing  Turbulence  Mountain Waves  Volcanic Ashes







- Airport Elevation : 765 ft


LOAV - Vöslau

CURRENT METAR :
  • 181500Z 30017G30KT 30KM BKN050CU 26/10

EXPIRED METARs :
  • 181400Z 30017G30KT 30KM BKN050CU 26/09
  • 181300Z 30018G34KT 40KM BKN045CU 25/08

TAF TAF LOAV
Valid from the 18 at 12:00 until the 18 at 21:00 UTC


181125Z 1812/1821 30014KT 9999 FEW040 SCT100
TEMPO 1812/1816 30020G35KT SCT040 FEW050CB
PROB30
TEMPO 1812/1814 SHRA
No reported NOTAMs for that airfield.



MET'MAP, your aeronautical weather chart ! - Copyright ORBIFLY December 2007 - Disclaimer

ORBIFLY MET'MAP TEAM :

Programming & Development : Alexandra Zaïnal
Concept & Development : Baudouin d'Aumeries
Co-Development & Prog : Marc-Olivier Méhu
Technical & hardware support : Manuel Goepfert

Contact : metmap@orbifly.com




SOURCES & CREDITS :

   NOAA